الصفحة الرئيسية
METAR-TAF:

METAR-TAF

مطار :

مطار الأميرة جوليانا الدولي

Sint Maarten, جزر الأنتيل الهولندية

دائرة عرض: 18-03N, خط طول: 063-07W, ارتفاع: 4 متر

مراقبة الطقس الحالي

تاريخ ووقت الإصدار 58 دقيقة قبل الساعة 09:00UTC
ريح 8 عقدة من الشرق
درجة الحرارة 27°درجة مئوية
الرطوبة 70%
ضغط 1018 hPa
الرؤية 10 كم أو أكثر
غيوم قليلة على ارتفاع 2000 قدم

METAR: TNCM 250900Z 09008KT 9999 FEW020 27/21 Q1018 A3007 RMK HZ ALQDS

زمن: 05:58 (09:58 UTC)

توقعات

تاريخ ووقت الإصدار 4ساعات و 38 دقيقة قبل الساعة 05:20UTC
التوقعات صالحة من25 الساعة 06 UTC إلى 26 الساعة 06 UTC
ريح 9 عقدة من الشرق
الرؤية: 10 كم
غيوم قليلة على ارتفاع 2000 قدم

TAF: TNCM 250520Z 2506/2606 09009KT P6SM FEW020

أرصاد الطقس والتوقعات من أكثر من 4000 مطار (تقارير الطقس للمطار METAR والتنبؤ بالطقس بالمطارTAF).

المحطات المتاحة هي النقط الصفراء والحمراء على الخريطة.

حرك المؤشر فوق النقطة لمعرفة اسم المحطة.

ثم انقر لمعرفة أرصاد وتوقعات الطقس.

لتغيير الخارطة: اضغط على الأزرار الخضراء مع رمز الصليب الأسود للتكبير. على الزر الأخضر مع شرطة للتصغير، أو على الأسهم الخضراء للخرائط المجاورة.


METAR-TAF: